createdAt,value
2023-04-04T00:00:57.216Z,1.49
2023-04-04T00:03:25.199Z,1.46
2023-04-04T00:05:53.284Z,1.42
2023-04-04T00:08:21.997Z,1.40
2023-04-04T00:10:50.000Z,1.36
2023-04-04T00:13:18.008Z,1.30
2023-04-04T00:15:46.055Z,1.23
2023-04-04T00:18:14.271Z,1.20
2023-04-04T00:20:42.301Z,1.15
2023-04-04T00:23:11.383Z,1.11
2023-04-04T00:25:39.419Z,1.10
2023-04-04T00:28:07.422Z,1.09
2023-04-04T00:30:35.417Z,1.06
2023-04-04T00:33:23.592Z,1.02
2023-04-04T00:35:52.005Z,1.01
2023-04-04T00:38:19.994Z,0.99
2023-04-04T00:40:51.807Z,0.98
2023-04-04T00:43:19.928Z,0.99
2023-04-04T00:45:48.169Z,0.99
2023-04-04T00:48:16.473Z,0.98
2023-04-04T00:50:44.365Z,0.96
2023-04-04T00:53:12.520Z,0.92
2023-04-04T00:55:40.770Z,0.89
2023-04-04T00:58:09.049Z,0.89
2023-04-04T01:00:38.319Z,0.88
2023-04-04T01:03:26.336Z,0.88
2023-04-04T01:05:55.985Z,0.90
2023-04-04T01:08:27.378Z,0.91
2023-04-04T01:10:55.546Z,0.88
2023-04-04T01:13:24.411Z,0.83
2023-04-04T01:15:52.745Z,0.76
2023-04-04T01:18:24.113Z,0.73
2023-04-04T01:21:04.945Z,0.69
2023-04-04T01:23:43.737Z,0.65
2023-04-04T01:26:12.887Z,0.65
2023-04-04T01:28:41.391Z,0.64
2023-04-04T01:31:15.283Z,0.68
2023-04-04T01:33:52.725Z,0.70
2023-04-04T01:36:34.715Z,0.71
2023-04-04T01:39:15.678Z,0.66
2023-04-04T01:41:48.392Z,0.61
2023-04-04T01:44:19.298Z,0.58
2023-04-04T01:46:48.553Z,0.56
2023-04-04T01:49:17.855Z,0.56
2023-04-04T01:51:46.684Z,0.54
2023-04-04T01:54:14.785Z,0.51
2023-04-04T01:56:43.033Z,0.48
2023-04-04T01:59:11.668Z,0.45
2023-04-04T02:01:39.843Z,0.39
2023-04-04T02:04:08.760Z,0.38
2023-04-04T02:06:36.713Z,0.37
2023-04-04T02:09:05.140Z,0.34
2023-04-04T02:11:33.352Z,0.29
2023-04-04T02:14:21.714Z,0.25
2023-04-04T02:16:50.155Z,0.22
2023-04-04T02:19:18.885Z,0.18
2023-04-04T02:21:46.693Z,0.13
2023-04-04T02:24:14.602Z,0.09
2023-04-04T02:26:42.716Z,0.06
2023-04-04T02:29:10.565Z,0.05
2023-04-04T02:31:38.643Z,0.07
2023-04-04T02:34:08.895Z,0.06
2023-04-04T02:36:37.707Z,0.04
2023-04-04T02:39:05.979Z,0.01
2023-04-04T02:41:34.044Z,0.00
2023-04-04T02:44:01.939Z,-0.02
2023-04-04T02:46:30.036Z,-0.03
2023-04-04T02:49:02.088Z,-0.03
2023-04-04T02:51:31.375Z,-0.04
2023-04-04T02:54:00.315Z,-0.04
2023-04-04T02:56:33.948Z,-0.02
2023-04-04T02:59:02.129Z,0.03
2023-04-04T03:01:31.282Z,0.07
2023-04-04T03:04:01.569Z,0.09
2023-04-04T03:06:33.241Z,0.09
2023-04-04T03:09:01.360Z,0.08
2023-04-04T03:11:29.373Z,0.08
2023-04-04T03:13:57.294Z,0.06
2023-04-04T03:16:35.135Z,0.05
2023-04-04T03:19:03.165Z,0.03
2023-04-04T03:21:31.359Z,0.05
2023-04-04T03:23:59.537Z,0.08
2023-04-04T03:26:29.535Z,0.09
2023-04-04T03:28:57.481Z,0.08
2023-04-04T03:31:26.277Z,0.11
2023-04-04T03:33:54.279Z,0.14
2023-04-04T03:36:23.180Z,0.15
2023-04-04T03:38:51.494Z,0.14
2023-04-04T03:41:19.703Z,0.10
2023-04-04T03:43:48.522Z,0.07
2023-04-04T03:46:17.068Z,-0.01
2023-04-04T03:48:45.817Z,0.03
2023-04-04T03:51:13.815Z,0.01
2023-04-04T03:53:41.771Z,-0.07
2023-04-04T03:56:10.081Z,-0.15
2023-04-04T03:59:18.305Z,-0.19
2023-04-04T04:01:47.530Z,-0.19
2023-04-04T04:04:15.377Z,-0.22
2023-04-04T04:07:03.480Z,-0.24
2023-04-04T04:09:31.478Z,-0.29
2023-04-04T04:11:59.402Z,-0.31
2023-04-04T04:14:27.350Z,-0.32
2023-04-04T04:16:55.421Z,-0.30
2023-04-04T04:19:23.442Z,-0.30
2023-04-04T04:21:51.596Z,-0.34
2023-04-04T04:24:19.575Z,-0.32
2023-04-04T04:26:47.566Z,-0.27
2023-04-04T04:29:16.719Z,-0.21
2023-04-04T04:31:44.842Z,-0.16
2023-04-04T04:34:13.838Z,-0.09
2023-04-04T04:36:42.580Z,-0.05
2023-04-04T04:39:19.491Z,0.00
2023-04-04T04:41:59.188Z,0.05
2023-04-04T04:44:27.345Z,0.10
2023-04-04T04:46:56.349Z,0.17
2023-04-04T04:49:24.563Z,0.25
2023-04-04T04:51:53.987Z,0.30
2023-04-04T04:54:22.266Z,0.33
2023-04-04T04:56:55.028Z,0.31
2023-04-04T04:59:23.099Z,0.31
2023-04-04T05:01:51.552Z,0.36
2023-04-04T05:04:20.182Z,0.42
2023-04-04T05:06:59.321Z,0.46
2023-04-04T05:09:27.554Z,0.51
2023-04-04T05:11:56.442Z,0.51
2023-04-04T05:14:27.842Z,0.49
2023-04-04T05:16:57.475Z,0.51
2023-04-04T05:19:36.629Z,0.55
2023-04-04T05:22:04.667Z,0.62
2023-04-04T05:24:43.370Z,0.65
2023-04-04T05:27:13.679Z,0.68
2023-04-04T05:29:47.203Z,0.69
2023-04-04T05:32:15.993Z,0.72
2023-04-04T05:34:46.660Z,0.72
2023-04-04T05:37:17.579Z,0.74
2023-04-04T05:39:49.235Z,0.77
2023-04-04T05:42:17.331Z,0.83
2023-04-04T05:44:49.058Z,0.91
2023-04-04T05:47:22.394Z,0.92
2023-04-04T05:49:51.287Z,0.95
2023-04-04T05:52:20.326Z,0.96
2023-04-04T05:54:48.560Z,0.95
2023-04-04T05:57:24.217Z,0.97
2023-04-04T05:59:56.736Z,1.04
2023-04-04T06:02:25.750Z,1.14
2023-04-04T06:04:57.679Z,1.25
2023-04-04T06:07:34.263Z,1.30
2023-04-04T06:10:02.614Z,1.28
2023-04-04T06:12:31.872Z,1.22
2023-04-04T06:15:00.991Z,1.25
2023-04-04T06:17:29.949Z,1.44
2023-04-04T06:19:58.157Z,1.68
2023-04-04T06:22:27.129Z,1.88
2023-04-04T06:24:56.122Z,1.97
2023-04-04T06:27:26.184Z,2.06
2023-04-04T06:29:54.149Z,2.15
2023-04-04T06:32:23.507Z,2.21
2023-04-04T06:34:51.467Z,2.31
2023-04-04T06:37:28.643Z,2.49
2023-04-04T06:40:04.404Z,2.67
2023-04-04T06:42:32.443Z,2.80
2023-04-04T06:45:04.078Z,2.95
2023-04-04T06:47:32.619Z,3.07
2023-04-04T06:50:03.038Z,3.18
2023-04-04T06:52:30.995Z,3.32
2023-04-04T06:54:58.924Z,3.47
2023-04-04T06:57:27.194Z,3.60
2023-04-04T06:59:55.099Z,3.86
2023-04-04T07:02:22.996Z,4.11
2023-04-04T07:04:50.989Z,4.40
2023-04-04T07:07:18.836Z,4.74
2023-04-04T07:09:46.826Z,5.08
2023-04-04T07:12:14.791Z,5.30
2023-04-04T07:14:42.807Z,5.39
2023-04-04T07:17:21.828Z,5.44
2023-04-04T07:19:52.735Z,5.50
2023-04-04T07:22:20.888Z,5.48
2023-04-04T07:24:48.818Z,5.51
2023-04-04T07:27:17.384Z,5.48
2023-04-04T07:29:45.245Z,5.56
2023-04-04T07:32:13.100Z,5.67
2023-04-04T07:34:41.936Z,5.81
2023-04-04T07:37:09.875Z,6.11
2023-04-04T07:39:37.801Z,6.44
2023-04-04T07:42:06.802Z,6.78
2023-04-04T07:44:34.721Z,7.16
2023-04-04T07:47:09.926Z,7.47
2023-04-04T07:49:38.525Z,7.68
2023-04-04T07:52:06.663Z,7.70
2023-04-04T07:54:35.584Z,7.73
2023-04-04T07:57:06.684Z,7.84
2023-04-04T07:59:34.731Z,8.09
2023-04-04T08:02:02.658Z,8.23
2023-04-04T08:04:30.759Z,8.39
2023-04-04T08:06:58.738Z,8.53
2023-04-04T08:09:31.456Z,8.66
2023-04-04T08:11:59.733Z,8.68
2023-04-04T08:14:27.916Z,8.67
2023-04-04T08:16:55.836Z,8.25
2023-04-04T08:19:23.794Z,8.04
2023-04-04T08:21:51.833Z,8.06
2023-04-04T08:24:22.450Z,8.04
2023-04-04T08:26:58.255Z,8.16
2023-04-04T08:29:34.550Z,8.54
2023-04-04T08:32:02.710Z,9.15
2023-04-04T08:34:30.629Z,9.80
2023-04-04T08:37:00.165Z,10.46
2023-04-04T08:39:28.167Z,10.93
2023-04-04T08:42:03.497Z,11.17
2023-04-04T08:44:34.146Z,10.92
2023-04-04T08:47:08.499Z,10.66
2023-04-04T08:49:39.408Z,10.71
2023-04-04T08:52:11.753Z,10.66
2023-04-04T08:54:41.120Z,10.90
2023-04-04T08:57:09.606Z,11.31
2023-04-04T08:59:38.123Z,11.41
2023-04-04T09:02:17.276Z,11.34
2023-04-04T09:05:02.407Z,11.64
2023-04-04T09:07:36.474Z,12.07
2023-04-04T09:10:08.417Z,11.93
2023-04-04T09:12:57.320Z,11.39
2023-04-04T09:15:33.052Z,10.83
2023-04-04T09:18:01.125Z,10.60
2023-04-04T09:20:41.109Z,10.26
2023-04-04T09:23:14.371Z,9.59
2023-04-04T09:26:02.389Z,9.06
2023-04-04T09:28:33.576Z,8.91
2023-04-04T09:31:04.990Z,9.02
2023-04-04T09:33:34.723Z,9.03
2023-04-04T09:36:03.881Z,8.99
2023-04-04T09:38:32.405Z,8.83
2023-04-04T09:41:00.751Z,8.64
2023-04-04T09:43:35.696Z,8.52
2023-04-04T09:46:04.384Z,8.61
2023-04-04T09:48:34.750Z,8.65
2023-04-04T09:51:12.865Z,8.47
2023-04-04T09:53:43.518Z,8.26
2023-04-04T09:56:11.490Z,8.21
2023-04-04T09:58:46.285Z,8.23
2023-04-04T10:01:20.990Z,8.20
2023-04-04T10:03:57.081Z,8.17
2023-04-04T10:06:25.856Z,8.16
2023-04-04T10:08:53.882Z,8.22
2023-04-04T10:11:33.765Z,8.26
2023-04-04T10:14:06.088Z,8.33
2023-04-04T10:16:37.938Z,8.36
2023-04-04T10:19:23.964Z,8.16
2023-04-04T10:21:52.100Z,8.04
2023-04-04T10:24:19.950Z,8.00
2023-04-04T10:26:47.843Z,7.95
2023-04-04T10:29:15.812Z,7.97
2023-04-04T10:31:45.495Z,8.13
2023-04-04T10:34:28.860Z,8.41
2023-04-04T10:37:10.045Z,8.45
2023-04-04T10:39:46.479Z,8.15
2023-04-04T10:42:17.020Z,7.85
2023-04-04T10:44:46.014Z,7.70
2023-04-04T10:47:23.920Z,8.11
2023-04-04T10:49:52.458Z,8.95
2023-04-04T10:52:23.025Z,9.38
2023-04-04T10:54:57.622Z,9.42
2023-04-04T10:57:26.507Z,9.27
2023-04-04T11:00:13.931Z,9.01
2023-04-04T11:02:58.579Z,8.75
2023-04-04T11:05:33.092Z,8.62
2023-04-04T11:10:42.416Z,8.69
2023-04-04T11:13:16.401Z,8.64
2023-04-04T11:16:05.295Z,8.53
2023-04-04T11:18:39.336Z,8.46
2023-04-04T11:21:15.246Z,8.53
2023-04-04T11:23:49.216Z,8.72
2023-04-04T11:26:37.470Z,9.09
2023-04-04T11:29:09.845Z,9.67
2023-04-04T11:31:45.556Z,10.26
2023-04-04T11:34:15.395Z,10.70
2023-04-04T11:36:45.301Z,11.03
2023-04-04T11:39:32.893Z,10.98
2023-04-04T11:42:08.947Z,10.74
2023-04-04T11:45:00.124Z,10.43
2023-04-04T11:47:31.601Z,10.12
2023-04-04T11:50:08.672Z,10.01
2023-04-04T11:52:38.537Z,9.81
2023-04-04T11:55:21.803Z,9.94
2023-04-04T11:57:51.482Z,10.35
2023-04-04T12:00:30.886Z,10.78
2023-04-04T12:02:59.683Z,11.24
2023-04-04T12:05:28.957Z,11.51
2023-04-04T12:07:58.037Z,11.81
2023-04-04T12:10:26.311Z,12.10
2023-04-04T12:12:57.218Z,12.56
2023-04-04T12:15:29.604Z,12.82
2023-04-04T12:17:57.840Z,12.94
2023-04-04T12:20:26.479Z,12.60
2023-04-04T12:22:54.371Z,11.90
2023-04-04T12:25:24.568Z,11.11
2023-04-04T12:27:53.837Z,10.42
2023-04-04T12:30:22.253Z,9.96
2023-04-04T12:32:51.788Z,9.95
2023-04-04T12:35:19.692Z,10.06
2023-04-04T12:38:01.776Z,10.52
2023-04-04T12:40:32.857Z,11.27
2023-04-04T12:43:02.200Z,11.93
2023-04-04T12:45:30.290Z,12.38
2023-04-04T12:47:58.928Z,12.31
2023-04-04T12:50:28.584Z,11.81
2023-04-04T12:53:18.501Z,11.31
2023-04-04T12:55:50.832Z,10.71
2023-04-04T12:58:21.569Z,10.16
2023-04-04T13:00:52.638Z,9.75
2023-04-04T13:03:24.531Z,9.37
2023-04-04T13:05:52.863Z,8.93
2023-04-04T13:08:21.572Z,8.57
2023-04-04T13:11:06.822Z,8.26
2023-04-04T13:13:40.911Z,7.85
2023-04-04T13:16:28.927Z,7.51
2023-04-04T13:19:16.828Z,7.29
2023-04-04T13:21:46.586Z,7.31
2023-04-04T13:24:14.442Z,7.40
2023-04-04T13:26:42.297Z,7.42
2023-04-04T13:29:10.269Z,7.43
2023-04-04T13:31:38.222Z,7.44
2023-04-04T13:34:06.115Z,7.51
2023-04-04T13:36:33.965Z,7.60
2023-04-04T13:39:01.867Z,7.71
2023-04-04T13:41:29.751Z,7.93
2023-04-04T13:43:57.687Z,8.04
2023-04-04T13:46:25.855Z,7.98
2023-04-04T13:48:53.707Z,7.85
2023-04-04T13:51:21.740Z,7.68
2023-04-04T13:53:49.707Z,7.48
2023-04-04T13:56:18.867Z,7.21
2023-04-04T13:58:47.343Z,6.94
2023-04-04T14:01:15.512Z,6.86
2023-04-04T14:03:43.477Z,6.91
2023-04-04T14:06:12.473Z,7.04
2023-04-04T14:08:40.444Z,7.13
2023-04-04T14:11:08.394Z,7.18
2023-04-04T14:13:36.977Z,7.17
2023-04-04T14:16:05.351Z,7.02
2023-04-04T14:18:34.729Z,6.88
2023-04-04T14:21:03.626Z,6.82
2023-04-04T14:23:31.764Z,6.82
2023-04-04T14:25:59.688Z,6.85
2023-04-04T14:28:28.748Z,6.94
2023-04-04T14:30:56.878Z,7.10
2023-04-04T14:33:25.031Z,7.19
2023-04-04T14:35:52.981Z,7.19
2023-04-04T14:38:21.074Z,7.11
2023-04-04T14:40:49.150Z,7.06
2023-04-04T14:43:17.143Z,6.93
2023-04-04T14:45:45.052Z,6.78
2023-04-04T14:48:13.256Z,6.65
2023-04-04T14:51:01.257Z,6.71
2023-04-04T14:53:29.105Z,6.84
2023-04-04T14:55:57.352Z,6.82
2023-04-04T14:58:25.505Z,6.73
2023-04-04T15:00:53.417Z,6.64
2023-04-04T15:03:21.524Z,6.60
2023-04-04T15:05:49.640Z,6.47
2023-04-04T15:08:17.565Z,6.21
2023-04-04T15:10:45.577Z,5.97
2023-04-04T15:13:13.551Z,5.71
2023-04-04T15:15:41.762Z,5.45
2023-04-04T15:18:09.721Z,5.27
2023-04-04T15:20:58.779Z,5.19
2023-04-04T15:23:26.769Z,5.16
2023-04-04T15:25:54.798Z,5.14
2023-04-04T15:28:22.834Z,5.07
2023-04-04T15:30:50.904Z,5.00
2023-04-04T15:33:18.829Z,4.98
2023-04-04T15:35:46.773Z,5.01
2023-04-04T15:38:14.650Z,4.99
2023-04-04T15:40:42.987Z,4.96
2023-04-04T15:43:11.044Z,4.94
2023-04-04T15:45:39.760Z,4.91
2023-04-04T15:48:08.228Z,4.83
2023-04-04T15:50:36.146Z,4.81
2023-04-04T15:53:04.248Z,4.79
2023-04-04T15:55:32.152Z,4.71
2023-04-04T15:58:00.121Z,4.58
2023-04-04T16:00:32.134Z,4.43
2023-04-04T16:03:00.559Z,4.31
2023-04-04T16:05:28.831Z,4.25
2023-04-04T16:07:56.804Z,4.21
2023-04-04T16:10:24.679Z,4.13
2023-04-04T16:13:13.647Z,4.02
2023-04-04T16:15:41.686Z,3.97
2023-04-04T16:18:09.663Z,4.01
2023-04-04T16:20:37.900Z,4.10
2023-04-04T16:23:06.199Z,4.12
2023-04-04T16:25:34.089Z,4.11
2023-04-04T16:28:02.161Z,4.07
2023-04-04T16:30:30.369Z,4.05
2023-04-04T16:32:58.429Z,4.00
2023-04-04T16:35:27.241Z,3.93
2023-04-04T16:37:55.823Z,3.83
2023-04-04T16:40:23.712Z,3.73
2023-04-04T16:42:51.734Z,3.62
2023-04-04T16:45:19.691Z,3.57
2023-04-04T16:47:47.742Z,3.53
2023-04-04T16:50:16.536Z,3.49
2023-04-04T16:52:44.443Z,3.46
2023-04-04T16:55:12.407Z,3.41
2023-04-04T16:57:41.240Z,3.33
2023-04-04T17:00:10.226Z,3.26
2023-04-04T17:02:45.362Z,3.22
2023-04-04T17:05:15.125Z,3.19
2023-04-04T17:07:43.410Z,3.21
2023-04-04T17:10:12.828Z,3.23
2023-04-04T17:12:40.923Z,3.21
2023-04-04T17:15:09.828Z,3.15
2023-04-04T17:17:38.210Z,3.10
2023-04-04T17:20:06.797Z,3.08
2023-04-04T17:22:35.097Z,3.08
2023-04-04T17:25:03.524Z,3.13
2023-04-04T17:27:31.822Z,3.14
2023-04-04T17:29:59.754Z,3.09
2023-04-04T17:32:27.783Z,3.03
2023-04-04T17:34:56.545Z,2.98
2023-04-04T17:37:25.104Z,2.93
2023-04-04T17:39:53.631Z,2.91
2023-04-04T17:42:21.869Z,2.95
2023-04-04T17:44:50.102Z,3.00
2023-04-04T17:47:18.421Z,3.05
2023-04-04T17:49:46.942Z,3.08
2023-04-04T17:52:19.290Z,3.13
2023-04-04T17:54:52.464Z,3.19
2023-04-04T17:57:20.625Z,3.23
2023-04-04T17:59:48.749Z,3.26
2023-04-04T18:02:18.685Z,3.28
2023-04-04T18:04:51.497Z,3.31
2023-04-04T18:07:19.808Z,3.33
2023-04-04T18:09:47.821Z,3.34
2023-04-04T18:12:16.136Z,3.33
2023-04-04T18:15:25.021Z,3.32
2023-04-04T18:17:53.685Z,3.28
2023-04-04T18:20:33.891Z,3.22
2023-04-04T18:23:04.567Z,3.13
2023-04-04T18:25:33.383Z,3.05
2023-04-04T18:28:02.152Z,2.98
2023-04-04T18:30:30.210Z,2.96
2023-04-04T18:32:58.643Z,2.93
2023-04-04T18:35:26.545Z,2.89
2023-04-04T18:37:54.694Z,2.85
2023-04-04T18:40:22.896Z,2.83
2023-04-04T18:42:52.510Z,2.80
2023-04-04T18:45:29.991Z,2.77
2023-04-04T18:48:02.480Z,2.72
2023-04-04T18:50:30.659Z,2.68
2023-04-04T18:52:58.582Z,2.64
2023-04-04T18:55:26.593Z,2.61
2023-04-04T18:57:54.846Z,2.57
2023-04-04T19:00:23.537Z,2.54
2023-04-04T19:02:51.873Z,2.50
2023-04-04T19:05:24.440Z,2.44
2023-04-04T19:07:54.554Z,2.40
2023-04-04T19:10:22.791Z,2.37
2023-04-04T19:12:51.177Z,2.33
2023-04-04T19:15:19.410Z,2.30
2023-04-04T19:17:47.445Z,2.25
2023-04-04T19:20:15.603Z,2.20
2023-04-04T19:22:43.550Z,2.15
2023-04-04T19:25:11.934Z,2.15
2023-04-04T19:27:40.585Z,2.17
2023-04-04T19:30:38.726Z,2.20
2023-04-04T19:33:33.360Z,2.22
2023-04-04T19:36:09.818Z,2.26
2023-04-04T19:38:45.584Z,2.27
2023-04-04T19:41:16.996Z,2.28
2023-04-04T19:43:47.618Z,2.30
2023-04-04T19:46:27.302Z,2.31
2023-04-04T19:48:57.072Z,2.34
2023-04-04T19:51:26.228Z,2.34
2023-04-04T19:53:58.423Z,2.33
2023-04-04T19:56:27.988Z,2.32
2023-04-04T19:59:02.432Z,2.31
2023-04-04T20:01:31.882Z,2.30
2023-04-04T20:04:18.265Z,2.31
2023-04-04T20:06:47.884Z,2.31
2023-04-04T20:09:40.172Z,2.32
2023-04-04T20:12:10.297Z,2.32
2023-04-04T20:14:38.967Z,2.29
2023-04-04T20:17:07.061Z,2.27
2023-04-04T20:19:36.671Z,2.26
2023-04-04T20:22:05.752Z,2.26
2023-04-04T20:24:34.217Z,2.24
2023-04-04T20:27:03.236Z,2.21
2023-04-04T20:29:36.897Z,2.18
2023-04-04T20:32:08.481Z,2.16
2023-04-04T20:34:42.484Z,2.14
2023-04-04T20:37:23.484Z,2.10
2023-04-04T20:40:01.300Z,2.07
2023-04-04T20:42:29.921Z,2.05
2023-04-04T20:45:10.439Z,1.99
2023-04-04T20:47:47.403Z,1.93
2023-04-04T20:50:19.075Z,1.90
2023-04-04T20:52:51.504Z,1.84
2023-04-04T20:55:21.075Z,1.85
2023-04-04T20:57:53.520Z,1.82
2023-04-04T21:00:42.682Z,1.81
2023-04-04T21:03:32.917Z,1.78
2023-04-04T21:06:11.671Z,1.75
2023-04-04T21:08:43.722Z,1.70
2023-04-04T21:11:13.126Z,1.64
2023-04-04T21:13:42.619Z,1.59
2023-04-04T21:16:13.580Z,1.52
2023-04-04T21:18:44.620Z,1.48
2023-04-04T21:21:17.703Z,1.46
2023-04-04T21:23:56.124Z,1.45
2023-04-04T21:26:34.757Z,1.44
2023-04-04T21:29:20.655Z,1.44
2023-04-04T21:31:51.110Z,1.43
2023-04-04T21:34:21.968Z,1.40
2023-04-04T21:36:52.547Z,1.34
2023-04-04T21:39:24.410Z,1.27
2023-04-04T21:41:56.642Z,1.22
2023-04-04T21:44:25.943Z,1.22
2023-04-04T21:46:57.238Z,1.22
2023-04-04T21:49:25.642Z,1.23
2023-04-04T21:51:53.696Z,1.23
2023-04-04T21:54:21.567Z,1.19
2023-04-04T21:56:49.499Z,1.17
2023-04-04T21:59:17.473Z,1.12
2023-04-04T22:01:45.456Z,1.07
2023-04-04T22:04:13.565Z,1.04
2023-04-04T22:06:41.499Z,1.02
2023-04-04T22:09:09.435Z,1.00
2023-04-04T22:11:44.371Z,1.00
2023-04-04T22:14:18.155Z,0.99
2023-04-04T22:16:46.498Z,0.99
2023-04-04T22:19:14.660Z,0.97
2023-04-04T22:21:47.823Z,0.99
2023-04-04T22:24:18.260Z,1.00
2023-04-04T22:26:46.896Z,1.03
2023-04-04T22:29:14.894Z,1.05
2023-04-04T22:31:43.062Z,1.06
2023-04-04T22:34:13.294Z,1.05
2023-04-04T22:36:43.836Z,1.03
2023-04-04T22:39:16.431Z,0.99
2023-04-04T22:41:44.523Z,0.93
2023-04-04T22:44:12.517Z,0.89
2023-04-04T22:46:40.391Z,0.85
2023-04-04T22:49:08.933Z,0.81
2023-04-04T22:51:46.272Z,0.77
2023-04-04T22:54:16.074Z,0.76
2023-04-04T22:56:44.581Z,0.75
2023-04-04T22:59:12.810Z,0.75
2023-04-04T23:01:41.229Z,0.75
2023-04-04T23:04:09.582Z,0.76
2023-04-04T23:06:38.696Z,0.77
2023-04-04T23:09:08.227Z,0.77
2023-04-04T23:11:37.091Z,0.77
2023-04-04T23:14:09.838Z,0.74
2023-04-04T23:16:38.312Z,0.70
2023-04-04T23:19:06.258Z,0.67
2023-04-04T23:21:35.207Z,0.69
2023-04-04T23:24:07.273Z,0.72
2023-04-04T23:26:35.627Z,0.72
2023-04-04T23:29:04.117Z,0.70
2023-04-04T23:31:32.078Z,0.67
2023-04-04T23:34:00.645Z,0.65
2023-04-04T23:36:28.579Z,0.64
2023-04-04T23:38:57.056Z,0.63
2023-04-04T23:41:25.031Z,0.60
2023-04-04T23:43:53.752Z,0.53
2023-04-04T23:46:22.360Z,0.45
2023-04-04T23:48:50.546Z,0.41
2023-04-04T23:51:18.678Z,0.38
2023-04-04T23:53:46.562Z,0.36
2023-04-04T23:56:14.673Z,0.34
2023-04-04T23:58:42.519Z,0.31
